TimeCST,TemperatureF,Dew PointF,Humidity,Sea Level PressureIn,VisibilityMPH,Wind Direction,Wind SpeedMPH,Gust SpeedMPH,PrecipitationIn,Events,Conditions,WindDirDegrees,DateUTC
12:56 AM,21.0,1.9,44,30.53,10.0,North,11.5,-,N/A,,Clear,350,2014-01-07 06:56:00
1:56 AM,19.9,1.9,46,30.53,10.0,NNW,9.2,-,N/A,,Clear,340,2014-01-07 07:56:00
2:56 AM,19.9,1.0,44,30.54,10.0,North,8.1,-,N/A,,Clear,360,2014-01-07 08:56:00
3:56 AM,17.1,3.0,54,30.54,10.0,NNW,6.9,-,N/A,,Clear,340,2014-01-07 09:56:00
4:56 AM,18.0,3.0,52,30.55,10.0,NNW,8.1,-,N/A,,Clear,340,2014-01-07 10:56:00
5:56 AM,17.1,3.0,54,30.56,10.0,North,9.2,-,N/A,,Scattered Clouds,350,2014-01-07 11:56:00
6:56 AM,17.1,3.0,54,30.60,10.0,NNW,10.4,-,N/A,,Mostly Cloudy,340,2014-01-07 12:56:00
7:56 AM,19.0,1.9,47,30.61,10.0,North,11.5,-,N/A,,Mostly Cloudy,360,2014-01-07 13:56:00
8:56 AM,21.0,-0.9,38,30.63,10.0,NNE,15.0,-,N/A,,Scattered Clouds,20,2014-01-07 14:56:00
9:56 AM,25.0,-0.0,34,30.61,10.0,NNE,8.1,-,N/A,,Scattered Clouds,20,2014-01-07 15:56:00
10:56 AM,27.0,-0.0,31,30.59,10.0,North,9.2,-,N/A,,Mostly Cloudy,350,2014-01-07 16:56:00
11:56 AM,28.0,-0.0,30,30.54,10.0,North,11.5,-,N/A,,Mostly Cloudy,350,2014-01-07 17:56:00
12:56 PM,30.0,-0.0,28,30.52,10.0,NNW,12.7,-,N/A,,Mostly Cloudy,330,2014-01-07 18:56:00
1:56 PM,32.0,-0.4,25,30.51,10.0,North,8.1,-,N/A,,Mostly Cloudy,350,2014-01-07 19:56:00
2:56 PM,33.1,-0.0,24,30.50,10.0,North,10.4,-,N/A,,Mostly Cloudy,350,2014-01-07 20:56:00
3:56 PM,30.2,-0.4,27,30.51,10.0,North,9.2,-,N/A,,Mostly Cloudy,360,2014-01-07 21:56:00
4:56 PM,30.0,1.9,30,30.51,10.0,NNW,10.4,-,N/A,,Mostly Cloudy,340,2014-01-07 22:56:00
5:56 PM,28.9,1.9,32,30.52,10.0,North,5.8,-,N/A,,Mostly Cloudy,360,2014-01-07 23:56:00
6:56 PM,27.0,3.0,36,30.52,10.0,NNE,5.8,-,N/A,,Mostly Cloudy,20,2014-01-08 00:56:00
7:56 PM,26.1,3.9,39,30.52,10.0,NE,5.8,-,N/A,,Scattered Clouds,40,2014-01-08 01:56:00
8:56 PM,25.0,3.9,41,30.51,10.0,NE,8.1,-,N/A,,Scattered Clouds,40,2014-01-08 02:56:00
9:56 PM,25.0,3.9,41,30.48,10.0,NNE,8.1,-,N/A,,Scattered Clouds,30,2014-01-08 03:56:00
10:56 PM,21.9,6.1,51,30.49,10.0,NW,3.5,-,N/A,,Scattered Clouds,310,2014-01-08 04:56:00
11:56 PM,19.9,8.1,60,30.48,10.0,Calm,Calm,-,N/A,,Clear,0,2014-01-08 05:56:00